Time;durP1;ratioP1;P1;durP2;ratioP2;P2;SDS_P1;SDS_P2;PMS_P1;PMS_P2;Temp;Humidity;BMP_temperature;BMP_pressure;BME280_temperature;BME280_humidity;BME280_pressure;Samples;Min_cycle;Max_cycle;Signal;HPM_P1;HPM_P2
2022/11/14 00:00:12;;;;;;;22.60;18.00;;;;;;;3.56;69.63;101071.44;691785;28;1519;-83
2022/11/14 00:00:52;;;;;;;21.08;17.80;;;;;;;3.55;69.92;101068.75;693402;28;1015;-83
2022/11/14 00:01:31;;;;;;;22.58;19.10;;;;;;;3.59;69.55;101086.22;693627;28;811;-83
2022/11/14 00:02:10;;;;;;;22.40;18.55;;;;;;;3.49;70.11;101069.28;690562;28;1391;-84
2022/11/14 00:02:49;;;;;;;23.83;18.60;;;;;;;3.46;69.79;101063.94;690215;28;1799;-83
2022/11/14 00:03:29;;;;;;;24.38;18.00;;;;;;;3.49;69.80;101063.25;690890;28;795;-83
2022/11/14 00:04:08;;;;;;;22.73;18.65;;;;;;;3.52;69.97;101061.75;691188;28;1578;-84
2022/11/14 00:04:48;;;;;;;24.00;18.90;;;;;;;3.49;69.71;101058.06;692918;28;1042;-83
2022/11/14 00:05:27;;;;;;;22.25;18.25;;;;;;;3.51;69.73;101067.69;688114;28;1019;-83
2022/11/14 00:06:07;;;;;;;19.85;16.75;;;;;;;3.56;70.02;101068.84;687180;28;2115;-83
2022/11/14 00:06:46;;;;;;;22.15;17.77;;;;;;;3.49;69.90;101056.38;687720;28;2110;-83
2022/11/14 00:07:29;;;;;;;25.20;19.20;;;;;;;3.47;69.63;101060.56;690205;28;1889;-83
2022/11/14 00:08:22;;;;;;;23.75;17.50;;;;;;;3.52;70.12;101074.66;688703;28;1197;-83
2022/11/14 00:09:01;;;;;;;23.40;18.58;;;;;;;3.45;70.10;101067.31;692265;28;1969;-83
2022/11/14 00:09:41;;;;;;;22.10;18.40;;;;;;;3.45;70.21;101066.41;689306;28;1592;-83
2022/11/14 00:10:21;;;;;;;22.45;18.63;;;;;;;3.47;69.95;101070.88;695662;28;1193;-83
2022/11/14 00:11:01;;;;;;;23.55;19.20;;;;;;;3.41;70.25;101055.00;695490;28;2048;-83
2022/11/14 00:11:40;;;;;;;23.08;18.88;;;;;;;3.42;69.75;101068.00;687566;28;2016;-83
2022/11/14 00:12:19;;;;;;;24.45;18.77;;;;;;;3.41;70.15;101065.31;691576;28;1279;-83
2022/11/14 00:12:58;;;;;;;24.52;18.73;;;;;;;3.42;69.97;101068.00;687289;28;1439;-83
2022/11/14 00:13:37;;;;;;;21.00;17.90;;;;;;;3.41;69.64;101068.81;687403;28;930;-83
2022/11/14 00:14:16;;;;;;;21.13;17.80;;;;;;;3.48;69.84;101076.94;687130;28;1484;-83
2022/11/14 00:14:55;;;;;;;20.92;18.05;;;;;;;3.38;70.07;101062.56;684489;28;1272;-83
2022/11/14 00:15:34;;;;;;;21.20;18.30;;;;;;;3.34;70.09;101060.59;687420;28;919;-83
2022/11/14 00:16:13;;;;;;;23.02;18.45;;;;;;;3.36;70.03;101059.00;689112;28;1331;-84
2022/11/14 00:16:52;;;;;;;23.02;17.88;;;;;;;3.40;70.08;101071.28;689968;28;1134;-83
2022/11/14 00:17:31;;;;;;;22.42;17.92;;;;;;;3.34;69.94;101063.16;688983;28;1470;-83
2022/11/14 00:18:10;;;;;;;22.92;18.25;;;;;;;3.35;69.97;101072.69;692561;28;1476;-83
2022/11/14 00:18:50;;;;;;;21.17;17.63;;;;;;;3.30;70.12;101062.06;695445;28;1081;-83
2022/11/14 00:19:29;;;;;;;21.55;18.15;;;;;;;3.30;70.07;101063.78;690626;28;894;-83
2022/11/14 00:20:11;;;;;;;23.13;18.33;;;;;;;3.35;70.45;101067.53;691685;28;2044;-83
2022/11/14 00:20:52;;;;;;;22.45;18.25;;;;;;;3.25;69.91;101056.63;687995;28;1154;-83
2022/11/14 00:21:37;;;;;;;22.08;17.65;;;;;;;3.26;70.15;101060.13;690814;28;807;-83
2022/11/14 00:22:16;;;;;;;22.88;18.08;;;;;;;3.24;69.98;101051.41;690831;28;1623;-83
2022/11/14 00:22:54;;;;;;;23.88;18.67;;;;;;;3.25;69.95;101059.22;690450;28;1240;-83
2022/11/14 00:23:34;;;;;;;23.20;18.30;;;;;;;3.25;70.15;101048.03;685320;28;1170;-83
2022/11/14 00:24:13;;;;;;;22.52;17.38;;;;;;;3.25;70.14;101056.63;690777;28;1826;-83
2022/11/14 00:24:52;;;;;;;22.38;17.63;;;;;;;3.22;70.03;101055.56;695327;28;1020;-82
2022/11/14 00:25:31;;;;;;;23.80;18.23;;;;;;;3.19;70.24;101050.22;691555;28;1884;-83
2022/11/14 00:26:10;;;;;;;23.40;18.33;;;;;;;3.21;70.32;101059.84;692543;28;1546;-83
2022/11/14 00:26:49;;;;;;;23.40;18.40;;;;;;;3.21;70.10;101062.41;691805;28;1104;-83
2022/11/14 00:27:28;;;;;;;24.30;19.10;;;;;;;3.10;70.22;101040.19;693590;28;810;-83
2022/11/14 00:28:08;;;;;;;25.30;19.27;;;;;;;3.23;70.10;101058.25;694736;28;2732;-83
2022/11/14 00:28:46;;;;;;;22.77;18.02;;;;;;;3.13;70.32;101043.00;692473;28;1926;-83
2022/11/14 00:29:25;;;;;;;24.42;19.17;;;;;;;3.17;70.53;101044.94;691362;28;2097;-82
2022/11/14 00:30:05;;;;;;;24.33;19.00;;;;;;;3.17;70.53;101047.53;691801;28;1209;-83
2022/11/14 00:30:47;;;;;;;23.38;18.60;;;;;;;3.16;70.25;101050.91;690435;28;1084;-83
2022/11/14 00:31:26;;;;;;;22.42;18.00;;;;;;;3.19;70.45;101058.81;687991;28;1250;-84
2022/11/14 00:32:06;;;;;;;25.63;19.60;;;;;;;3.12;70.15;101044.66;688678;28;1420;-82
2022/11/14 00:32:45;;;;;;;25.02;19.30;;;;;;;3.13;69.91;101043.88;690553;28;1303;-83
2022/11/14 00:33:24;;;;;;;24.20;18.90;;;;;;;3.21;70.28;101059.84;692894;28;917;-83
2022/11/14 00:34:04;;;;;;;24.15;19.10;;;;;;;3.18;70.39;101046.72;693103;28;1341;-83
2022/11/14 00:34:43;;;;;;;24.67;19.58;;;;;;;3.18;70.08;101051.88;689257;28;1692;-83
2022/11/14 00:35:23;;;;;;;23.77;19.23;;;;;;;3.17;70.04;101044.94;688226;28;1260;-83
2022/11/14 00:36:02;;;;;;;23.58;18.85;;;;;;;3.19;70.31;101053.66;687781;28;1676;-83
2022/11/14 00:36:41;;;;;;;24.70;19.25;;;;;;;3.13;69.89;101040.41;690286;28;901;-83
2022/11/14 00:37:20;;;;;;;25.70;19.33;;;;;;;3.19;69.82;101053.66;692396;28;1179;-83
2022/11/14 00:37:59;;;;;;;26.20;19.25;;;;;;;3.13;70.25;101045.56;695459;28;2009;-83
2022/11/14 00:38:38;;;;;;;24.62;18.82;;;;;;;3.09;70.17;101035.84;690810;28;873;-83
2022/11/14 00:39:17;;;;;;;24.20;19.98;;;;;;;3.13;70.27;101051.59;692563;28;1308;-83
2022/11/14 00:39:56;;;;;;;23.25;19.40;;;;;;;3.09;70.46;101041.00;693220;28;899;-83
2022/11/14 00:40:35;;;;;;;22.90;19.23;;;;;;;3.12;70.25;101041.22;693365;28;867;-83
2022/11/14 00:41:14;;;;;;;23.40;18.13;;;;;;;3.17;69.97;101054.41;697884;28;1365;-82
2022/11/14 00:41:53;;;;;;;24.08;18.05;;;;;;;3.11;70.02;101041.97;688124;28;1257;-83
2022/11/14 00:42:33;;;;;;;23.77;18.63;;;;;;;3.04;69.95;101030.41;685530;28;1230;-82
2022/11/14 00:43:13;;;;;;;21.98;18.45;;;;;;;3.10;70.10;101045.34;684612;28;1689;-83
2022/11/14 00:43:52;;;;;;;23.92;18.95;;;;;;;3.11;70.22;101047.13;685475;28;1009;-84
2022/11/14 00:44:31;;;;;;;24.52;19.20;;;;;;;3.11;70.38;101047.13;687954;28;814;-83
2022/11/14 00:45:10;;;;;;;24.17;18.92;;;;;;;3.03;70.10;101031.19;692137;28;1142;-83
2022/11/14 00:45:49;;;;;;;25.42;19.33;;;;;;;3.03;70.14;101030.28;690777;28;1150;-82
2022/11/14 00:46:28;;;;;;;25.05;18.95;;;;;;;3.04;69.76;101037.22;693596;28;1147;-83
2022/11/14 00:47:08;;;;;;;23.92;18.55;;;;;;;3.04;70.25;101044.97;692118;28;1345;-83
2022/11/14 00:47:50;;;;;;;22.85;18.55;;;;;;;3.04;70.26;101043.28;686238;28;1103;-82
2022/11/14 00:48:29;;;;;;;22.35;18.23;;;;;;;3.06;70.03;101049.44;687847;28;1247;-82
2022/11/14 00:49:09;;;;;;;22.23;17.95;;;;;;;2.97;70.10;101036.88;689443;28;1567;-83
2022/11/14 00:49:48;;;;;;;22.77;18.38;;;;;;;3.00;70.27;101043.91;690130;28;962;-83
2022/11/14 00:50:27;;;;;;;25.90;18.80;;;;;;;2.96;70.01;101040.25;690747;28;863;-82
2022/11/14 00:51:06;;;;;;;26.15;19.27;;;;;;;2.96;70.55;101039.34;693526;28;1392;-83
2022/11/14 00:51:45;;;;;;;24.17;19.55;;;;;;;3.04;70.29;101052.69;692685;28;1183;-83
2022/11/14 00:52:24;;;;;;;23.52;18.80;;;;;;;2.97;70.12;101039.44;690505;28;936;-82
2022/11/14 00:53:04;;;;;;;23.60;18.70;;;;;;;2.93;70.19;101037.44;686997;28;1839;-83
2022/11/14 00:53:43;;;;;;;25.63;19.15;;;;;;;2.89;70.17;101030.34;686424;28;1150;-83
2022/11/14 00:54:22;;;;;;;24.48;18.88;;;;;;;2.92;70.67;101037.34;688619;28;1364;-83
2022/11/14 00:55:01;;;;;;;24.85;18.70;;;;;;;2.90;70.25;101032.13;690046;28;1153;-83
2022/11/14 00:55:41;;;;;;;23.38;18.26;;;;;;;2.91;70.10;101033.91;686993;28;1006;-83
2022/11/14 00:56:21;;;;;;;23.92;18.60;;;;;;;2.93;70.02;101034.88;687044;28;1258;-83
2022/11/14 00:57:00;;;;;;;25.10;20.08;;;;;;;2.91;70.49;101031.31;684786;28;1227;-83
2022/11/14 00:57:39;;;;;;;23.98;19.17;;;;;;;2.87;70.11;101031.91;684895;28;1162;-83
2022/11/14 00:58:18;;;;;;;23.40;18.67;;;;;;;2.84;70.49;101026.56;687241;28;1022;-83
2022/11/14 00:58:57;;;;;;;23.00;18.70;;;;;;;2.84;70.21;101035.19;690037;28;1267;-83
2022/11/14 00:59:36;;;;;;;23.33;17.80;;;;;;;2.85;70.51;101030.91;687331;28;847;-83
2022/11/14 01:00:15;;;;;;;24.52;18.33;;;;;;;2.82;70.21;101029.03;692948;28;1559;-82
2022/11/14 01:00:55;;;;;;;25.83;18.38;;;;;;;2.83;70.02;101027.34;695569;28;1056;-83
2022/11/14 01:01:34;;;;;;;21.65;17.75;;;;;;;2.80;70.26;101027.16;690892;28;882;-83
2022/11/14 01:02:14;;;;;;;22.85;18.40;;;;;;;2.81;70.28;101029.84;692759;28;2040;-83
2022/11/14 01:02:55;;;;;;;25.92;19.45;;;;;;;2.77;70.63;101022.72;685280;28;1148;-82
2022/11/14 01:03:34;;;;;;;23.98;19.20;;;;;;;2.82;70.20;101039.34;687989;28;819;-82
2022/11/14 01:04:13;;;;;;;25.33;19.52;;;;;;;2.78;70.34;101031.31;685063;28;1975;-83
2022/11/14 01:04:52;;;;;;;25.17;19.65;;;;;;;2.71;70.02;101022.31;687637;28;1142;-83
2022/11/14 01:05:31;;;;;;;24.90;18.92;;;;;;;2.71;70.31;101020.63;690519;28;872;-83
2022/11/14 01:06:10;;;;;;;23.92;19.15;;;;;;;2.80;70.50;101037.44;691890;28;1337;-83
2022/11/14 01:06:49;;;;;;;24.77;19.20;;;;;;;2.80;70.48;101017.75;696142;28;1101;-83
2022/11/14 01:07:28;;;;;;;24.00;18.83;;;;;;;2.73;70.40;101015.56;693460;28;899;-83
2022/11/14 01:08:08;;;;;;;23.90;19.08;;;;;;;2.73;70.52;101026.78;692526;28;1319;-83
2022/11/14 01:08:50;;;;;;;23.20;18.60;;;;;;;2.75;70.58;101025.97;690361;28;1981;-82
2022/11/14 01:09:29;;;;;;;23.80;18.80;;;;;;;2.80;70.42;101034.88;685134;28;1551;-83
2022/11/14 01:10:09;;;;;;;25.52;20.30;;;;;;;2.75;70.24;101028.56;688987;28;1736;-83
2022/11/14 01:10:49;;;;;;;25.80;20.02;;;;;;;2.74;70.15;101032.81;693226;28;1294;-83
2022/11/14 01:11:28;;;;;;;23.88;19.00;;;;;;;2.69;70.02;101018.75;690487;28;827;-83
2022/11/14 01:12:07;;;;;;;23.42;19.00;;;;;;;2.68;70.49;101023.00;687722;28;1934;-83
2022/11/14 01:12:47;;;;;;;23.65;19.30;;;;;;;2.71;70.52;101022.31;684984;28;1361;-83
2022/11/14 01:13:30;;;;;;;24.63;18.73;;;;;;;2.66;70.56;101019.44;687473;28;1245;-83
2022/11/14 01:14:09;;;;;;;25.83;19.20;;;;;;;2.66;70.58;101018.53;689784;28;1383;-83
2022/11/14 01:14:48;;;;;;;23.88;18.88;;;;;;;2.61;70.18;101010.50;688041;28;1097;-83
2022/11/14 01:15:27;;;;;;;23.63;18.40;;;;;;;2.61;70.16;101015.66;690916;28;830;-83
2022/11/14 01:16:07;;;;;;;24.23;18.50;;;;;;;2.63;70.44;101021.81;689083;28;1244;-83
2022/11/14 01:16:47;;;;;;;22.88;18.33;;;;;;;2.59;70.43;101017.25;688045;28;1279;-83
2022/11/14 01:17:27;;;;;;;24.75;19.83;;;;;;;2.52;70.56;101016.00;690141;28;827;-82
2022/11/14 01:18:09;;;;;;;25.73;19.85;;;;;;;2.58;70.16;101018.06;691768;28;1547;-83
2022/11/14 01:18:48;;;;;;;26.42;19.58;;;;;;;2.49;70.49;101007.16;696132;28;1095;-83
2022/11/14 01:19:28;;;;;;;26.30;19.10;;;;;;;2.46;70.53;101001.00;693614;28;921;-83
2022/11/14 01:20:08;;;;;;;23.35;17.80;;;;;;;2.52;70.60;101007.34;692844;28;1679;-83
2022/11/14 01:20:48;;;;;;;23.33;18.55;;;;;;;2.51;70.13;101003.00;688701;28;1498;-83
2022/11/14 01:21:27;;;;;;;23.83;18.73;;;;;;;2.51;70.36;101003.00;690689;28;803;-83
2022/11/14 01:22:07;;;;;;;25.30;19.10;;;;;;;2.49;70.47;101004.59;691197;28;1467;-83
2022/11/14 01:22:46;;;;;;;24.88;19.13;;;;;;;2.47;70.19;101001.91;693072;28;1185;-83
2022/11/14 01:23:25;;;;;;;23.70;18.83;;;;;;;2.45;70.46;101001.78;692374;28;783;-83
2022/11/14 01:24:05;;;;;;;22.42;18.30;;;;;;;2.48;70.51;101005.34;688567;28;1361;-83
2022/11/14 01:24:44;;;;;;;22.38;18.55;;;;;;;2.44;70.60;100997.44;692785;28;1296;-83
2022/11/14 01:25:24;;;;;;;22.67;18.85;;;;;;;2.42;70.69;100999.03;689198;28;1089;-83
2022/11/14 01:26:10;;;;;;;22.67;18.27;;;;;;;2.41;70.75;100996.34;690441;28;1499;-83
2022/11/14 01:26:49;;;;;;;22.55;18.67;;;;;;;2.46;70.45;101005.28;689738;28;1302;-82
2022/11/14 01:27:31;;;;;;;23.77;18.92;;;;;;;2.39;70.52;100996.25;690948;28;771;-84
2022/11/14 01:28:17;;;;;;;22.98;18.98;;;;;;;2.39;70.48;100988.50;692392;28;1206;-83
2022/11/14 01:28:56;;;;;;;23.45;18.33;;;;;;;2.44;70.58;101000.03;690828;28;1961;-83
2022/11/14 01:29:35;;;;;;;22.88;17.95;;;;;;;2.43;70.57;100995.66;688555;28;1268;-83
2022/11/14 01:30:15;;;;;;;23.23;17.70;;;;;;;2.37;70.85;100990.09;685563;28;1604;-83
2022/11/14 01:30:54;;;;;;;24.30;18.45;;;;;;;2.38;70.19;100979.00;687549;28;1065;-82
2022/11/14 01:31:33;;;;;;;24.05;18.63;;;;;;;2.41;70.17;100986.94;688099;28;1133;-83
2022/11/14 01:32:12;;;;;;;24.45;19.45;;;;;;;2.48;70.64;101003.69;692695;28;1572;-82
2022/11/14 01:32:51;;;;;;;22.83;17.98;;;;;;;2.36;70.22;100988.31;688710;28;1356;-83
2022/11/14 01:33:30;;;;;;;21.80;17.70;;;;;;;2.38;70.17;100985.84;691974;28;1196;-83
2022/11/14 01:34:09;;;;;;;22.27;18.50;;;;;;;2.34;70.54;100981.28;687948;28;1818;-84
2022/11/14 01:34:48;;;;;;;21.60;17.90;;;;;;;2.38;70.36;100991.88;688055;28;1859;-83
2022/11/14 01:35:28;;;;;;;21.25;17.73;;;;;;;2.34;70.05;100989.91;693853;28;1021;-83
2022/11/14 01:36:10;;;;;;;22.45;18.42;;;;;;;2.35;70.39;100996.84;699444;28;1618;-83
2022/11/14 01:36:49;;;;;;;22.35;18.10;;;;;;;2.26;70.10;100980.81;692728;28;1004;-83
2022/11/14 01:37:29;;;;;;;22.45;18.58;;;;;;;2.28;70.35;100989.50;689071;28;1345;-83
2022/11/14 01:38:11;;;;;;;21.45;18.13;;;;;;;2.25;70.25;100981.59;690426;28;1694;-83
2022/11/14 01:38:52;;;;;;;22.58;17.83;;;;;;;2.30;70.56;100998.22;696856;28;1230;-83
2022/11/14 01:39:31;;;;;;;23.98;18.20;;;;;;;2.24;70.40;100987.50;693613;28;1344;-83
2022/11/14 01:40:11;;;;;;;22.40;17.83;;;;;;;2.20;70.87;100972.66;689391;28;1979;-82
2022/11/14 01:40:50;;;;;;;24.13;17.70;;;;;;;2.29;70.53;100981.91;691270;28;1917;-81
2022/11/14 01:41:29;;;;;;;22.98;17.67;;;;;;;2.33;70.29;100980.41;687941;28;874;-82
2022/11/14 01:42:08;;;;;;;23.80;18.65;;;;;;;2.38;69.95;100975.56;688000;28;1441;-82
2022/11/14 01:43:10;;;;;;;25.27;19.10;;;;;;;2.47;69.64;100981.28;686023;28;1540;-82
2022/11/14 01:43:50;;;;;;;26.92;19.83;;;;;;;2.38;69.82;100976.44;688258;28;1151;-83
2022/11/14 01:44:46;;;;;;;26.58;20.45;;;;;;;2.41;69.96;100973.16;688736;28;1734;-83
2022/11/14 01:46:02;;;;;;;22.77;18.23;;;;;;;2.35;69.92;100963.38;692594;28;799;-83
2022/11/14 01:46:45;;;;;;;23.05;18.23;;;;;;;2.32;69.92;100966.63;682966;29;1243;-82
2022/11/14 01:47:29;;;;;;;22.67;17.90;;;;;;;2.37;69.99;100966.94;682924;29;1904;-83
2022/11/14 01:48:22;;;;;;;23.50;18.38;;;;;;;2.30;69.66;100954.44;680165;29;1929;-82
2022/11/14 01:49:15;;;;;;;22.70;18.95;;;;;;;2.46;69.69;100969.22;685075;28;1924;-83
2022/11/14 01:49:57;;;;;;;24.60;19.02;;;;;;;2.43;69.49;100969.91;687813;28;1171;-83
2022/11/14 01:50:37;;;;;;;25.48;19.48;;;;;;;2.39;69.81;100954.16;685625;28;1291;-83
2022/11/14 01:51:30;;;;;;;24.77;18.90;;;;;;;2.40;69.57;100961.97;687615;28;1947;-83
2022/11/14 01:52:23;;;;;;;25.20;19.40;;;;;;;2.45;69.48;100973.47;689170;28;1970;-83
2022/11/14 01:53:02;;;;;;;26.63;19.55;;;;;;;2.36;69.59;100957.41;692368;28;1667;-83
2022/11/14 01:53:42;;;;;;;25.20;19.13;;;;;;;2.34;69.71;100960.69;692432;28;937;-83
2022/11/14 01:54:29;;;;;;;23.25;18.30;;;;;;;2.37;69.73;100960.91;698212;28;1221;-82
2022/11/14 01:55:09;;;;;;;25.02;18.90;;;;;;;2.27;69.75;100947.41;691112;28;1473;-83
2022/11/14 01:55:49;;;;;;;25.42;19.40;;;;;;;2.29;69.87;100948.41;696415;28;1080;-83
2022/11/14 01:56:37;;;;;;;25.52;20.00;;;;;;;2.24;69.97;100931.75;696396;28;1419;-83
2022/11/14 01:57:21;;;;;;;25.15;19.75;;;;;;;2.24;69.37;100933.44;693634;28;1181;-83
2022/11/14 01:58:00;;;;;;;24.85;19.17;;;;;;;2.26;69.66;100934.44;690579;28;1370;-83
2022/11/14 01:58:43;;;;;;;22.45;18.00;;;;;;;2.27;69.58;100936.22;693476;28;1130;-82
2022/11/14 01:59:27;;;;;;;22.83;18.77;;;;;;;2.30;69.60;100936.41;696203;28;1273;-82
2022/11/14 02:00:10;;;;;;;23.92;19.05;;;;;;;2.38;70.01;100952.38;690305;28;1574;-83
2022/11/14 02:00:49;;;;;;;21.23;17.38;;;;;;;2.38;69.75;100950.66;685371;28;1037;-82
2022/11/14 02:01:32;;;;;;;23.25;16.65;;;;;;;2.51;69.35;100933.44;685527;28;874;-83
2022/11/14 02:02:16;;;;;;;24.00;13.52;;;;;;;2.82;68.92;100943.97;689526;28;1307;-83
2022/11/14 02:02:56;;;;;;;25.33;13.85;;;;;;;2.91;68.31;100938.50;688436;28;1266;-83
2022/11/14 02:03:39;;;;;;;25.60;14.45;;;;;;;3.01;67.51;100946.00;690861;28;799;-83
2022/11/14 02:04:29;;;;;;;24.90;14.43;;;;;;;3.03;66.84;100940.03;696066;28;1697;-83
2022/11/14 02:05:13;;;;;;;24.80;14.80;;;;;;;3.01;66.83;100927.94;691614;28;1300;-83
2022/11/14 02:05:54;;;;;;;22.85;14.30;;;;;;;3.11;66.58;100954.28;687273;28;1615;-83
2022/11/14 02:06:34;;;;;;;26.73;15.10;;;;;;;3.06;66.74;100948.00;685725;28;1156;-83
2022/11/14 02:07:14;;;;;;;24.67;14.73;;;;;;;3.09;66.38;100953.31;689369;28;1198;-83
2022/11/14 02:07:53;;;;;;;25.02;14.95;;;;;;;3.10;66.46;100956.00;687723;28;1160;-83
2022/11/14 02:08:33;;;;;;;26.85;15.48;;;;;;;3.00;66.30;100938.19;687805;28;1131;-83
2022/11/14 02:09:12;;;;;;;24.13;14.90;;;;;;;3.03;66.16;100942.63;682680;28;1419;-82
2022/11/14 02:09:52;;;;;;;25.13;15.23;;;;;;;3.02;66.08;100949.47;689146;28;1074;-83
2022/11/14 02:10:31;;;;;;;27.17;15.68;;;;;;;3.02;66.27;100941.75;690268;28;890;-83
2022/11/14 02:11:11;;;;;;;28.45;15.80;;;;;;;3.01;65.79;100946.00;694214;28;1177;-83
2022/11/14 02:11:52;;;;;;;24.40;14.57;;;;;;;2.98;65.95;100940.66;690325;28;1262;-83
2022/11/14 02:12:32;;;;;;;23.73;14.20;;;;;;;2.95;66.17;100943.03;687756;28;1079;-83
2022/11/14 02:13:11;;;;;;;25.85;15.30;;;;;;;3.01;65.70;100939.97;690645;28;1996;-83
2022/11/14 02:13:51;;;;;;;24.08;14.80;;;;;;;3.14;65.80;100957.09;698668;28;979;-83
2022/11/14 02:14:32;;;;;;;23.33;14.65;;;;;;;3.13;65.43;100945.00;693008;28;1530;-83
2022/11/14 02:15:12;;;;;;;25.30;15.30;;;;;;;2.97;65.45;100931.16;691689;28;1074;-83
2022/11/14 02:15:51;;;;;;;26.85;15.40;;;;;;;3.06;65.79;100955.72;692814;28;933;-83
2022/11/14 02:16:30;;;;;;;25.40;15.15;;;;;;;2.98;65.53;100944.91;692639;28;1356;-83
2022/11/14 02:17:10;;;;;;;27.42;16.58;;;;;;;2.88;65.32;100928.03;691257;28;1479;-83
2022/11/14 02:17:49;;;;;;;26.40;15.75;;;;;;;2.93;65.57;100941.19;688024;28;1119;-83
2022/11/14 02:18:28;;;;;;;25.08;15.98;;;;;;;2.91;65.80;100932.44;684388;28;894;-83
2022/11/14 02:19:08;;;;;;;26.42;15.70;;;;;;;2.82;65.22;100923.34;687269;28;1567;-83
2022/11/14 02:19:50;;;;;;;30.33;15.63;;;;;;;2.84;65.70;100934.66;684787;28;1080;-83
2022/11/14 02:20:34;;;;;;;23.65;14.25;;;;;;;2.94;65.61;100941.25;687848;28;1212;-83
2022/11/14 02:21:13;;;;;;;25.48;14.95;;;;;;;2.92;65.61;100935.13;689750;28;1199;-83
2022/11/14 02:21:52;;;;;;;25.00;14.45;;;;;;;2.92;65.42;100935.13;693291;28;1040;-83
2022/11/14 02:22:32;;;;;;;26.95;15.10;;;;;;;2.86;65.72;100924.44;687947;28;1253;-83
2022/11/14 02:23:11;;;;;;;24.55;15.18;;;;;;;2.82;65.34;100922.47;688723;28;1327;-83
2022/11/14 02:23:50;;;;;;;25.23;15.05;;;;;;;2.89;65.89;100934.03;690011;28;1700;-83
2022/11/14 02:24:29;;;;;;;26.38;15.40;;;;;;;2.72;65.97;100926.16;695030;28;1357;-83
2022/11/14 02:25:11;;;;;;;26.52;14.93;;;;;;;2.67;66.07;100923.28;695641;28;2027;-82
2022/11/14 02:25:51;;;;;;;25.65;15.00;;;;;;;2.72;66.12;100937.38;692595;28;1444;-83
2022/11/14 02:26:30;;;;;;;27.92;15.60;;;;;;;2.81;66.01;100933.59;690524;28;2034;-83
2022/11/14 02:27:11;;;;;;;26.58;15.77;;;;;;;2.84;65.71;100931.19;689996;28;1518;-82
2022/11/14 02:27:50;;;;;;;25.05;15.43;;;;;;;2.87;65.56;100931.38;695786;28;1180;-83
2022/11/14 02:28:30;;;;;;;23.83;14.85;;;;;;;2.93;65.32;100933.47;693398;28;843;-82
2022/11/14 02:29:10;;;;;;;25.52;15.45;;;;;;;2.87;65.71;100929.69;687239;28;1919;-83
2022/11/14 02:29:49;;;;;;;26.50;15.02;;;;;;;2.89;65.32;100932.38;686305;28;1049;-83
2022/11/14 02:30:28;;;;;;;24.35;14.85;;;;;;;2.87;65.72;100916.81;686656;28;1477;-83
2022/11/14 02:31:07;;;;;;;23.08;14.57;;;;;;;2.87;65.83;100924.53;688959;28;1560;-83
2022/11/14 02:31:46;;;;;;;28.17;16.02;;;;;;;2.90;65.49;100926.41;690650;28;1063;-83
2022/11/14 02:32:25;;;;;;;29.98;15.98;;;;;;;2.88;65.50;100922.88;689870;28;1168;-83
2022/11/14 02:33:04;;;;;;;26.40;15.05;;;;;;;2.80;65.40;100903.41;688917;28;1395;-83
2022/11/14 02:33:43;;;;;;;23.45;15.10;;;;;;;2.73;65.61;100903.06;684529;28;1176;-83
2022/11/14 02:34:22;;;;;;;25.40;15.25;;;;;;;2.81;65.06;100915.53;685182;28;1386;-83
2022/11/14 02:35:01;;;;;;;24.65;15.05;;;;;;;2.82;65.39;100920.78;687320;28;1068;-83
2022/11/14 02:35:40;;;;;;;24.33;14.80;;;;;;;2.81;65.48;100906.09;690593;28;834;-83
2022/11/14 02:36:19;;;;;;;23.80;14.00;;;;;;;2.87;65.20;100921.97;695090;28;1407;-83
2022/11/14 02:36:58;;;;;;;23.48;14.73;;;;;;;2.95;65.88;100929.28;695959;28;1031;-83
2022/11/14 02:37:38;;;;;;;23.42;15.00;;;;;;;2.83;65.88;100906.22;690483;28;1159;-83
2022/11/14 02:38:17;;;;;;;24.35;14.77;;;;;;;2.87;65.46;100915.91;692240;28;1600;-83
2022/11/14 02:38:56;;;;;;;26.17;14.98;;;;;;;2.84;65.38;100910.56;690374;28;1024;-83
2022/11/14 02:39:35;;;;;;;26.15;15.00;;;;;;;2.81;65.40;100916.41;690242;28;1121;-83
2022/11/14 02:40:14;;;;;;;24.63;14.20;;;;;;;2.79;65.41;100910.28;692283;28;1910;-83
2022/11/14 02:40:53;;;;;;;23.80;14.25;;;;;;;2.79;64.95;100906.81;695187;28;991;-83
2022/11/14 02:41:33;;;;;;;24.33;14.90;;;;;;;2.78;65.26;100911.09;695887;28;1145;-83
2022/11/14 02:42:12;;;;;;;24.25;14.13;;;;;;;2.81;65.11;100906.09;697163;28;1145;-82
2022/11/14 02:42:51;;;;;;;23.40;14.18;;;;;;;2.81;65.57;100910.38;694141;28;1941;-82
2022/11/14 02:43:30;;;;;;;24.63;14.85;;;;;;;2.81;65.28;100910.38;696255;28;1046;-84
2022/11/14 02:44:09;;;;;;;26.85;15.13;;;;;;;2.82;65.10;100922.47;691632;28;1616;-83
2022/11/14 02:44:48;;;;;;;27.33;14.88;;;;;;;2.76;64.88;100904.03;692597;28;1004;-83
2022/11/14 02:45:27;;;;;;;23.85;14.95;;;;;;;2.80;65.41;100909.47;690587;28;844;-82
2022/11/14 02:46:06;;;;;;;25.23;14.90;;;;;;;2.77;64.92;100910.97;685035;28;1233;-83
2022/11/14 02:46:45;;;;;;;25.98;14.60;;;;;;;2.77;65.65;100908.41;687346;28;1196;-83
2022/11/14 02:47:24;;;;;;;24.95;14.82;;;;;;;2.79;65.28;100909.38;691720;28;934;-83
2022/11/14 02:48:04;;;;;;;25.08;15.00;;;;;;;2.79;65.11;100910.28;694759;28;1379;-81
2022/11/14 02:48:43;;;;;;;24.45;14.95;;;;;;;2.77;65.45;100908.41;690394;28;1190;-81
2022/11/14 02:49:22;;;;;;;23.70;15.07;;;;;;;2.77;65.73;100908.41;690414;28;1257;-80
2022/11/14 02:50:02;;;;;;;26.02;14.55;;;;;;;2.81;65.52;100916.41;689832;28;1027;-81
2022/11/14 02:50:41;;;;;;;27.20;14.68;;;;;;;2.72;65.52;100903.88;690457;28;1218;-81
2022/11/14 02:51:20;;;;;;;23.80;14.70;;;;;;;2.73;65.19;100910.81;689899;28;1174;-80
2022/11/14 02:52:00;;;;;;;23.48;13.95;;;;;;;2.70;65.27;100896.84;687730;28;1115;-81
2022/11/14 02:52:38;;;;;;;23.65;13.82;;;;;;;2.71;65.72;100912.38;690765;28;1497;-81
2022/11/14 02:53:18;;;;;;;25.50;13.90;;;;;;;2.66;65.81;100895.75;692958;28;1565;-81
2022/11/14 02:53:56;;;;;;;25.60;14.93;;;;;;;2.71;65.60;100908.91;692522;28;950;-81
2022/11/14 02:54:36;;;;;;;24.90;14.93;;;;;;;2.73;65.24;100913.38;687725;28;900;-81
2022/11/14 02:55:15;;;;;;;24.05;14.65;;;;;;;2.71;65.44;100901.19;691304;28;1462;-81
2022/11/14 02:55:54;;;;;;;21.88;13.35;;;;;;;2.73;65.33;100908.22;695842;28;975;-80
2022/11/14 02:56:33;;;;;;;25.55;14.70;;;;;;;2.73;65.73;100903.06;692570;28;847;-81
2022/11/14 02:57:12;;;;;;;24.40;15.32;;;;;;;2.68;64.94;100894.16;692636;28;1482;-81
2022/11/14 02:57:51;;;;;;;22.45;14.77;;;;;;;2.67;64.94;100891.47;693012;28;1157;-81
2022/11/14 02:58:30;;;;;;;24.90;14.75;;;;;;;2.76;65.36;100917.84;693072;28;1893;-80
2022/11/14 02:59:10;;;;;;;25.25;15.65;;;;;;;2.72;65.11;100914.19;693832;28;1458;-81
2022/11/14 02:59:49;;;;;;;24.30;14.80;;;;;;;2.70;65.25;100910.59;695417;28;1106;-81
2022/11/14 03:00:28;;;;;;;24.00;14.30;;;;;;;2.67;65.20;100902.69;695024;28;1542;-80
2022/11/14 03:01:07;;;;;;;25.48;15.20;;;;;;;2.66;65.49;100900.91;694665;28;1383;-81
2022/11/14 03:01:46;;;;;;;25.33;15.05;;;;;;;2.70;64.88;100902.88;698662;28;1042;-81
2022/11/14 03:02:25;;;;;;;25.98;14.70;;;;;;;2.68;65.23;100903.56;693123;28;1589;-80
2022/11/14 03:03:04;;;;;;;26.77;14.50;;;;;;;2.71;65.31;100904.63;689339;28;2397;-81
2022/11/14 03:03:43;;;;;;;25.98;15.27;;;;;;;2.68;65.21;100899.31;687492;28;1095;-81
2022/11/14 03:04:22;;;;;;;24.83;15.80;;;;;;;2.66;64.72;100893.19;691487;28;1213;-81
2022/11/14 03:05:01;;;;;;;25.75;15.73;;;;;;;2.64;64.84;100902.50;692502;28;1098;-81
2022/11/14 03:05:40;;;;;;;25.90;14.50;;;;;;;2.62;65.16;100901.50;692830;28;1341;-81
2022/11/14 03:06:19;;;;;;;23.60;14.40;;;;;;;2.63;65.02;100892.09;690687;28;1606;-80
2022/11/14 03:06:58;;;;;;;24.20;14.02;;;;;;;2.64;65.16;100902.50;687584;28;1250;-81
2022/11/14 03:07:37;;;;;;;23.30;14.50;;;;;;;2.60;65.29;100892.78;688601;28;1388;-81
2022/11/14 03:08:16;;;;;;;28.27;14.88;;;;;;;2.55;64.73;100884.78;686613;28;1368;-81
2022/11/14 03:08:56;;;;;;;25.45;15.80;;;;;;;2.66;64.86;100902.56;692345;28;1914;-81
2022/11/14 03:09:35;;;;;;;22.63;15.07;;;;;;;2.63;64.89;100892.97;689456;28;1628;-80